createdAt,value
2022-10-02T00:00:10.459Z,26.80
2022-10-02T00:01:10.421Z,25.10
2022-10-02T00:02:10.409Z,23.90
2022-10-02T00:03:10.395Z,23.10
2022-10-02T00:04:10.380Z,21.50
2022-10-02T00:05:10.370Z,27.90
2022-10-02T00:06:10.405Z,28.70
2022-10-02T00:07:10.365Z,24.20
2022-10-02T00:08:10.338Z,28.30
2022-10-02T00:09:10.334Z,31.90
2022-10-02T00:10:10.280Z,27.20
2022-10-02T00:11:10.296Z,27.60
2022-10-02T00:12:10.289Z,29.40
2022-10-02T00:13:10.349Z,27.70
2022-10-02T00:14:10.265Z,25.30
2022-10-02T00:15:10.227Z,25.50
2022-10-02T00:16:10.283Z,28.10
2022-10-02T00:17:10.270Z,24.70
2022-10-02T00:18:10.281Z,30.30
2022-10-02T00:19:10.202Z,24.60
2022-10-02T00:20:10.176Z,28.10
2022-10-02T00:21:10.209Z,30.30
2022-10-02T00:22:10.186Z,26.20
2022-10-02T00:23:10.178Z,25.10
2022-10-02T00:24:10.171Z,24.70
2022-10-02T00:25:10.137Z,21.70
2022-10-02T00:26:10.111Z,29.00
2022-10-02T00:27:10.120Z,27.20
2022-10-02T00:28:10.178Z,28.70
2022-10-02T00:29:10.086Z,28.60
2022-10-02T00:30:10.069Z,23.70
2022-10-02T00:31:10.060Z,22.00
2022-10-02T00:32:10.077Z,28.10
2022-10-02T00:33:10.054Z,28.70
2022-10-02T00:34:15.008Z,29.50
2022-10-02T00:35:10.045Z,31.10
2022-10-02T00:36:09.992Z,31.10
2022-10-02T00:37:09.987Z,28.60
2022-10-02T00:38:09.977Z,36.20
2022-10-02T00:39:09.993Z,30.30
2022-10-02T00:40:09.945Z,26.30
2022-10-02T00:41:09.946Z,27.30
2022-10-02T00:42:09.929Z,31.40
2022-10-02T00:43:09.954Z,27.10
2022-10-02T00:44:09.925Z,29.60
2022-10-02T00:45:09.893Z,34.00
2022-10-02T00:46:09.995Z,31.00
2022-10-02T00:47:09.892Z,34.40
2022-10-02T00:48:09.857Z,27.80
2022-10-02T00:49:09.942Z,31.30
2022-10-02T00:50:09.829Z,31.70
2022-10-02T00:51:09.864Z,29.20
2022-10-02T00:52:09.802Z,28.00
2022-10-02T00:53:09.824Z,32.70
2022-10-02T00:54:09.803Z,34.90
2022-10-02T00:55:09.807Z,32.40
2022-10-02T00:56:09.766Z,29.50
2022-10-02T00:57:09.768Z,34.90
2022-10-02T00:58:09.740Z,34.30
2022-10-02T00:59:09.750Z,35.60
2022-10-02T01:00:09.720Z,31.70
2022-10-02T01:01:09.829Z,28.00
2022-10-02T01:02:09.756Z,32.40
2022-10-02T01:03:09.699Z,27.10
2022-10-02T01:04:09.690Z,31.90
2022-10-02T01:05:09.669Z,33.80
2022-10-02T01:06:09.667Z,30.50
2022-10-02T01:07:09.870Z,34.20
2022-10-02T01:08:09.633Z,33.00
2022-10-02T01:09:09.633Z,35.80
2022-10-02T01:10:09.620Z,29.30
2022-10-02T01:11:09.618Z,31.00
2022-10-02T01:12:09.579Z,33.60
2022-10-02T01:13:09.584Z,33.30
2022-10-02T01:14:09.586Z,31.20
2022-10-02T01:15:09.565Z,33.30
2022-10-02T01:16:09.620Z,36.60
2022-10-02T01:17:09.534Z,30.60
2022-10-02T01:18:09.551Z,33.00
2022-10-02T01:19:09.527Z,32.80
2022-10-02T01:20:09.508Z,35.60
2022-10-02T01:21:09.487Z,34.90
2022-10-02T01:22:09.467Z,35.80
2022-10-02T01:23:09.470Z,31.90
2022-10-02T01:24:09.645Z,32.70
2022-10-02T01:25:09.466Z,33.40
2022-10-02T01:26:09.423Z,32.60
2022-10-02T01:27:09.424Z,33.60
2022-10-02T01:28:09.487Z,32.80
2022-10-02T01:29:09.429Z,31.60
2022-10-02T01:30:09.433Z,29.10
2022-10-02T01:31:09.456Z,36.50
2022-10-02T01:32:09.372Z,36.40
2022-10-02T01:33:09.536Z,37.60
2022-10-02T01:34:09.356Z,39.80
2022-10-02T01:35:09.545Z,30.30
2022-10-02T01:36:09.312Z,29.80
2022-10-02T01:37:09.414Z,31.30
2022-10-02T01:38:09.302Z,33.70
2022-10-02T01:39:09.548Z,40.20
2022-10-02T01:40:09.274Z,35.40
2022-10-02T01:41:09.309Z,36.60
2022-10-02T01:42:09.275Z,32.40
2022-10-02T01:43:09.281Z,39.60
2022-10-02T01:44:09.253Z,32.50
2022-10-02T01:45:09.329Z,34.70
2022-10-02T01:46:09.251Z,35.50
2022-10-02T01:47:09.196Z,30.30
2022-10-02T01:48:09.177Z,31.70
2022-10-02T01:49:09.197Z,34.80
2022-10-02T01:50:09.168Z,32.60
2022-10-02T01:51:09.172Z,39.80
2022-10-02T01:52:09.126Z,33.90
2022-10-02T01:53:09.160Z,32.80
2022-10-02T01:54:09.147Z,33.10
2022-10-02T01:55:09.182Z,32.10
2022-10-02T01:56:09.085Z,34.30
2022-10-02T01:57:09.090Z,34.30
2022-10-02T01:58:09.107Z,38.00
2022-10-02T01:59:09.111Z,33.90
2022-10-02T02:00:09.042Z,39.60
2022-10-02T02:01:09.120Z,30.10
2022-10-02T02:02:09.051Z,32.70
2022-10-02T02:03:08.998Z,33.40
2022-10-02T02:04:09.019Z,31.80
2022-10-02T02:05:08.978Z,35.50
2022-10-02T02:06:08.967Z,30.10
2022-10-02T02:07:08.995Z,34.50
2022-10-02T02:08:08.959Z,35.20
2022-10-02T02:09:08.957Z,34.70
2022-10-02T02:10:08.932Z,33.30
2022-10-02T02:11:08.914Z,34.20
2022-10-02T02:12:08.911Z,37.00
2022-10-02T02:13:08.932Z,33.60
2022-10-02T02:14:08.896Z,34.00
2022-10-02T02:15:08.867Z,36.50
2022-10-02T02:16:08.922Z,35.70
2022-10-02T02:17:08.866Z,36.80
2022-10-02T02:18:08.840Z,34.40
2022-10-02T02:19:08.855Z,32.70
2022-10-02T02:20:08.830Z,35.00
2022-10-02T02:21:08.790Z,34.80
2022-10-02T02:22:08.796Z,42.50
2022-10-02T02:23:08.846Z,32.30
2022-10-02T02:24:08.808Z,34.30
2022-10-02T02:25:08.777Z,34.50
2022-10-02T02:26:08.744Z,35.30
2022-10-02T02:27:08.740Z,33.40
2022-10-02T02:28:08.734Z,32.70
2022-10-02T02:29:08.756Z,34.40
2022-10-02T02:30:08.697Z,38.50
2022-10-02T02:31:08.698Z,36.90
2022-10-02T02:32:08.684Z,32.80
2022-10-02T02:33:08.688Z,36.30
2022-10-02T02:34:08.798Z,31.50
2022-10-02T02:35:08.669Z,32.90
2022-10-02T02:36:08.625Z,39.40
2022-10-02T02:37:08.609Z,31.40
2022-10-02T02:38:08.699Z,34.90
2022-10-02T02:39:08.624Z,27.40
2022-10-02T02:40:08.632Z,37.60
2022-10-02T02:41:08.593Z,31.50
2022-10-02T02:42:08.571Z,31.80
2022-10-02T02:43:08.556Z,34.60
2022-10-02T02:44:08.571Z,33.70
2022-10-02T02:45:08.534Z,33.00
2022-10-02T02:46:08.612Z,37.20
2022-10-02T02:47:08.508Z,33.90
2022-10-02T02:48:08.498Z,30.10
2022-10-02T02:49:08.495Z,31.20
2022-10-02T02:50:08.461Z,30.10
2022-10-02T02:51:08.452Z,31.30
2022-10-02T02:52:08.458Z,30.60
2022-10-02T02:53:08.445Z,31.70
2022-10-02T02:54:08.455Z,37.60
2022-10-02T02:55:08.412Z,33.40
2022-10-02T02:56:08.399Z,32.50
2022-10-02T02:57:08.391Z,32.20
2022-10-02T02:58:08.415Z,26.60
2022-10-02T02:59:08.378Z,34.80
2022-10-02T03:00:08.382Z,30.00
2022-10-02T03:01:08.435Z,31.80
2022-10-02T03:02:08.371Z,35.40
2022-10-02T03:03:08.326Z,31.10
2022-10-02T03:04:08.445Z,31.80
2022-10-02T03:05:08.309Z,28.00
2022-10-02T03:06:08.282Z,28.00
2022-10-02T03:07:08.313Z,32.40
2022-10-02T03:08:08.256Z,27.20
2022-10-02T03:09:08.259Z,30.30
2022-10-02T03:10:08.230Z,27.20
2022-10-02T03:11:08.254Z,32.50
2022-10-02T03:12:08.228Z,26.30
2022-10-02T03:13:08.191Z,24.00
2022-10-02T03:14:08.219Z,23.30
2022-10-02T03:15:08.209Z,27.00
2022-10-02T03:16:08.196Z,24.60
2022-10-02T03:17:08.149Z,27.30
2022-10-02T03:18:08.152Z,28.00
2022-10-02T03:19:08.189Z,27.60
2022-10-02T03:20:08.124Z,22.50
2022-10-02T03:21:08.116Z,21.80
2022-10-02T03:22:08.101Z,27.90
2022-10-02T03:23:09.878Z,24.10
2022-10-02T03:24:08.124Z,22.10
2022-10-02T03:25:08.051Z,20.30
2022-10-02T03:26:08.095Z,15.10
2022-10-02T03:27:08.073Z,21.40
2022-10-02T03:28:08.134Z,20.30
2022-10-02T03:29:08.069Z,21.30
2022-10-02T03:30:08.031Z,21.10
2022-10-02T03:31:08.026Z,21.60
2022-10-02T03:32:08.001Z,16.20
2022-10-02T03:33:07.988Z,22.90
2022-10-02T03:34:07.990Z,19.00
2022-10-02T03:35:07.996Z,19.80
2022-10-02T03:36:07.929Z,21.00
2022-10-02T03:37:07.943Z,20.70
2022-10-02T03:38:07.968Z,26.10
2022-10-02T03:40:07.897Z,25.20
2022-10-02T03:41:07.878Z,25.20
2022-10-02T03:42:07.891Z,29.00
2022-10-02T03:43:07.877Z,28.90
2022-10-02T03:44:07.874Z,33.40
2022-10-02T03:45:07.839Z,35.90
2022-10-02T03:46:07.905Z,32.90
2022-10-02T03:47:07.810Z,29.70
2022-10-02T03:48:07.833Z,40.00
2022-10-02T03:49:07.863Z,45.80
2022-10-02T03:50:07.802Z,39.40
2022-10-02T03:51:07.764Z,39.30
2022-10-02T03:52:07.757Z,41.00
2022-10-02T03:53:07.746Z,46.20
2022-10-02T03:54:07.746Z,44.80
2022-10-02T03:55:07.718Z,50.40
2022-10-02T03:56:07.710Z,45.40
2022-10-02T03:57:07.715Z,46.80
2022-10-02T03:58:07.689Z,52.50
2022-10-02T03:59:07.680Z,50.90
2022-10-02T04:00:07.702Z,53.20
2022-10-02T04:01:07.735Z,48.90
2022-10-02T04:02:07.700Z,53.70
2022-10-02T04:03:07.667Z,53.80
2022-10-02T04:04:07.635Z,50.90
2022-10-02T04:05:07.601Z,52.60
2022-10-02T04:06:07.594Z,51.50
2022-10-02T04:07:07.574Z,46.80
2022-10-02T04:08:07.575Z,51.60
2022-10-02T04:09:07.588Z,58.20
2022-10-02T04:10:07.546Z,49.90
2022-10-02T04:11:07.604Z,52.90
2022-10-02T04:12:07.530Z,48.00
2022-10-02T04:13:07.529Z,53.00
2022-10-02T04:14:07.530Z,49.20
2022-10-02T04:15:07.598Z,49.90
2022-10-02T04:16:07.522Z,45.30
2022-10-02T04:17:07.497Z,44.40
2022-10-02T04:18:07.459Z,41.50
2022-10-02T04:19:07.479Z,40.50
2022-10-02T04:20:07.513Z,40.60
2022-10-02T04:21:07.422Z,42.40
2022-10-02T04:22:07.429Z,40.30
2022-10-02T04:23:07.395Z,38.60
2022-10-02T04:24:07.468Z,38.90
2022-10-02T04:25:07.382Z,36.20
2022-10-02T04:26:07.379Z,42.30
2022-10-02T04:27:07.442Z,36.70
2022-10-02T04:28:07.484Z,39.40
2022-10-02T04:29:07.410Z,39.60
2022-10-02T04:30:07.332Z,42.10
2022-10-02T04:31:07.384Z,38.80
2022-10-02T04:32:07.336Z,38.00
2022-10-02T04:33:07.280Z,37.80
2022-10-02T04:34:07.289Z,33.70
2022-10-02T04:35:07.262Z,40.30
2022-10-02T04:36:07.550Z,39.10
2022-10-02T04:37:07.236Z,40.30
2022-10-02T04:38:07.244Z,39.80
2022-10-02T04:39:07.237Z,47.40
2022-10-02T04:40:07.209Z,43.60
2022-10-02T04:41:07.240Z,48.60
2022-10-02T04:42:07.197Z,43.10
2022-10-02T04:43:07.172Z,47.70
2022-10-02T04:44:07.301Z,48.80
2022-10-02T04:45:07.158Z,46.50
2022-10-02T04:46:07.261Z,54.70
2022-10-02T04:47:07.363Z,53.70
2022-10-02T04:48:07.164Z,51.80
2022-10-02T04:49:07.139Z,49.70
2022-10-02T04:50:07.206Z,58.00
2022-10-02T04:51:07.084Z,57.20
2022-10-02T04:52:07.109Z,54.60
2022-10-02T04:53:07.088Z,55.70
2022-10-02T04:54:07.467Z,61.50
2022-10-02T04:55:07.045Z,51.40
2022-10-02T04:56:07.053Z,58.30
2022-10-02T04:57:07.051Z,60.30
2022-10-02T04:58:07.364Z,56.00
2022-10-02T04:59:07.020Z,59.60
2022-10-02T05:00:06.975Z,59.90
2022-10-02T05:01:07.015Z,59.00
2022-10-02T05:02:07.133Z,54.20
2022-10-02T05:03:06.946Z,55.20
2022-10-02T05:04:06.971Z,64.60
2022-10-02T05:05:06.937Z,60.10
2022-10-02T05:06:06.921Z,62.20
2022-10-02T05:07:06.908Z,58.90
2022-10-02T05:08:06.921Z,55.80
2022-10-02T05:09:06.999Z,58.50
2022-10-02T05:10:06.910Z,61.10
2022-10-02T05:11:06.853Z,63.70
2022-10-02T05:12:06.908Z,63.50
2022-10-02T05:13:06.826Z,70.70
2022-10-02T05:14:06.864Z,61.70
2022-10-02T05:15:06.865Z,61.20
2022-10-02T05:16:06.905Z,67.30
2022-10-02T05:17:06.856Z,56.50
2022-10-02T05:18:06.815Z,67.40
2022-10-02T05:19:06.798Z,65.20
2022-10-02T05:20:06.748Z,62.80
2022-10-02T05:21:06.805Z,59.50
2022-10-02T05:22:06.810Z,59.70
2022-10-02T05:23:06.704Z,60.70
2022-10-02T05:24:06.734Z,62.20
2022-10-02T05:25:06.699Z,58.30
2022-10-02T05:26:09.666Z,59.10
2022-10-02T05:27:06.672Z,64.80
2022-10-02T05:28:06.750Z,59.90
2022-10-02T05:29:06.743Z,64.60
2022-10-02T05:30:06.686Z,63.90
2022-10-02T05:31:06.747Z,63.30
2022-10-02T05:32:06.742Z,59.30
2022-10-02T05:33:06.603Z,62.90
2022-10-02T05:34:06.899Z,63.00
2022-10-02T05:35:06.618Z,56.30
2022-10-02T05:36:06.735Z,61.50
2022-10-02T05:37:06.673Z,59.90
2022-10-02T05:38:06.542Z,61.00
2022-10-02T05:39:06.642Z,62.60
2022-10-02T05:40:06.584Z,68.30
2022-10-02T05:41:06.504Z,65.20
2022-10-02T05:42:06.516Z,61.50
2022-10-02T05:43:06.492Z,61.60
2022-10-02T05:44:06.576Z,63.20
2022-10-02T05:45:06.569Z,60.20
2022-10-02T05:46:06.460Z,62.30
2022-10-02T05:47:06.532Z,64.80
2022-10-02T05:48:06.486Z,59.80
2022-10-02T05:49:06.439Z,62.60
2022-10-02T05:50:06.489Z,57.30
2022-10-02T05:51:06.413Z,66.50
2022-10-02T05:52:06.654Z,58.90
2022-10-02T05:53:06.407Z,63.30
2022-10-02T05:54:06.519Z,63.10
2022-10-02T05:55:06.574Z,59.00
2022-10-02T05:56:06.331Z,60.20
2022-10-02T05:57:06.334Z,63.80
2022-10-02T05:58:06.445Z,59.60
2022-10-02T05:59:06.320Z,61.30
2022-10-02T06:00:06.328Z,62.20
2022-10-02T06:01:06.467Z,59.00
2022-10-02T06:02:06.424Z,66.30
2022-10-02T06:03:06.276Z,60.80
2022-10-02T06:04:06.298Z,57.00
2022-10-02T06:05:06.312Z,54.10
2022-10-02T06:06:06.261Z,61.20
2022-10-02T06:07:06.237Z,59.60
2022-10-02T06:08:06.287Z,65.30
2022-10-02T06:09:06.252Z,62.20
2022-10-02T06:10:06.179Z,61.10
2022-10-02T06:11:06.207Z,56.30
2022-10-02T06:12:06.264Z,55.10
2022-10-02T06:13:06.163Z,59.50
2022-10-02T06:14:06.212Z,57.80
2022-10-02T06:15:06.117Z,57.60
2022-10-02T06:16:06.239Z,57.60
2022-10-02T06:17:06.120Z,58.70
2022-10-02T06:18:06.192Z,60.10
2022-10-02T06:19:06.152Z,61.50
2022-10-02T06:20:06.067Z,62.80
2022-10-02T06:21:06.260Z,55.70
2022-10-02T06:22:06.037Z,56.20
2022-10-02T06:23:06.042Z,57.90
2022-10-02T06:24:06.149Z,59.10
2022-10-02T06:25:06.016Z,60.20
2022-10-02T06:26:05.989Z,56.90
2022-10-02T06:27:06.011Z,58.50
2022-10-02T06:28:06.073Z,54.40
2022-10-02T06:29:06.222Z,55.60
2022-10-02T06:30:05.996Z,53.30
2022-10-02T06:31:06.066Z,54.50
2022-10-02T06:32:05.935Z,53.30
2022-10-02T06:33:05.960Z,59.40
2022-10-02T06:34:05.929Z,48.80
2022-10-02T06:35:05.897Z,55.60
2022-10-02T06:36:05.883Z,52.30
2022-10-02T06:37:06.089Z,52.60
2022-10-02T06:38:06.189Z,49.60
2022-10-02T06:39:05.881Z,50.70
2022-10-02T06:40:05.979Z,52.80
2022-10-02T06:41:05.880Z,47.10
2022-10-02T06:42:05.992Z,51.00
2022-10-02T06:43:05.881Z,56.70
2022-10-02T06:44:06.118Z,53.10
2022-10-02T06:45:05.786Z,52.30
2022-10-02T06:46:05.865Z,49.30
2022-10-02T06:47:05.923Z,49.90
2022-10-02T06:48:05.822Z,51.40
2022-10-02T06:49:05.819Z,54.70
2022-10-02T06:50:05.801Z,46.80
2022-10-02T06:51:05.893Z,44.20
2022-10-02T06:52:05.825Z,45.90
2022-10-02T06:53:05.742Z,52.20
2022-10-02T06:54:05.951Z,45.80
2022-10-02T06:55:06.038Z,49.10
2022-10-02T06:56:05.777Z,46.60
2022-10-02T06:57:05.810Z,46.70
2022-10-02T06:58:05.812Z,43.80
2022-10-02T06:59:05.780Z,44.30
2022-10-02T07:00:05.800Z,41.80
2022-10-02T07:01:05.686Z,44.30
2022-10-02T07:02:05.625Z,45.50
2022-10-02T07:03:05.587Z,41.40
2022-10-02T07:04:05.711Z,46.30
2022-10-02T07:05:05.865Z,42.00
2022-10-02T07:06:05.639Z,42.10
2022-10-02T07:07:05.631Z,42.30
2022-10-02T07:08:05.546Z,47.80
2022-10-02T07:09:05.533Z,43.20
2022-10-02T07:10:05.552Z,43.10
2022-10-02T07:11:05.652Z,40.80
2022-10-02T07:12:05.626Z,40.50
2022-10-02T07:13:05.624Z,44.20
2022-10-02T07:14:05.447Z,44.30
2022-10-02T07:15:05.774Z,43.60
2022-10-02T07:16:05.520Z,37.30
2022-10-02T07:17:05.517Z,46.40
2022-10-02T07:18:05.448Z,44.20
2022-10-02T07:19:05.458Z,42.00
2022-10-02T07:20:05.441Z,41.80
2022-10-02T07:21:05.439Z,50.80
2022-10-02T07:22:20.521Z,42.00
2022-10-02T07:23:07.665Z,43.40
2022-10-02T07:24:05.330Z,39.90
2022-10-02T07:25:05.378Z,45.00
2022-10-02T07:26:05.457Z,42.90
2022-10-02T07:27:05.322Z,44.50
2022-10-02T07:28:05.516Z,37.80
2022-10-02T07:29:05.724Z,44.40
2022-10-02T07:30:05.442Z,40.30
2022-10-02T07:31:05.546Z,43.20
2022-10-02T07:32:05.468Z,41.50
2022-10-02T07:33:05.229Z,41.30
2022-10-02T07:34:05.216Z,37.80
2022-10-02T07:35:05.260Z,41.10
2022-10-02T07:36:05.225Z,36.70
2022-10-02T07:37:05.198Z,33.50
2022-10-02T07:38:05.204Z,35.40
2022-10-02T07:39:05.175Z,39.50
2022-10-02T07:40:05.238Z,35.30
2022-10-02T07:41:05.243Z,40.50
2022-10-02T07:42:05.153Z,32.30
2022-10-02T07:43:05.112Z,40.90
2022-10-02T07:44:05.198Z,41.60
2022-10-02T07:45:05.214Z,35.90
2022-10-02T07:46:08.169Z,35.20
2022-10-02T07:47:05.196Z,37.60
2022-10-02T07:48:05.109Z,34.80
2022-10-02T07:49:05.121Z,39.80
2022-10-02T07:50:05.298Z,37.10
2022-10-02T07:51:05.256Z,29.90
2022-10-02T07:52:05.021Z,34.90
2022-10-02T07:53:05.063Z,32.90
2022-10-02T07:54:05.153Z,34.90
2022-10-02T07:55:05.279Z,34.70
2022-10-02T07:56:05.078Z,33.90
2022-10-02T07:57:09.650Z,31.90
2022-10-02T07:58:04.946Z,31.50
2022-10-02T07:59:04.950Z,31.80
2022-10-02T08:00:05.122Z,38.60
2022-10-02T08:01:05.020Z,30.20
2022-10-02T08:02:05.048Z,31.30
2022-10-02T08:03:05.072Z,30.40
2022-10-02T08:04:04.906Z,36.50
2022-10-02T08:05:04.984Z,35.70
2022-10-02T08:06:04.868Z,31.20
2022-10-02T08:07:04.950Z,32.20
2022-10-02T08:08:04.866Z,32.70
2022-10-02T08:09:04.872Z,30.20
2022-10-02T08:10:04.901Z,31.80
2022-10-02T08:11:04.831Z,33.90
2022-10-02T08:12:04.830Z,36.60
2022-10-02T08:13:04.781Z,32.20
2022-10-02T08:14:04.776Z,28.50
2022-10-02T08:15:04.796Z,30.70
2022-10-02T08:16:04.822Z,27.60
2022-10-02T08:17:04.842Z,28.00
2022-10-02T08:18:30.091Z,35.60
2022-10-02T08:19:04.741Z,32.40
2022-10-02T08:20:04.790Z,33.50
2022-10-02T08:21:04.820Z,33.20
2022-10-02T08:22:04.696Z,30.50
2022-10-02T08:23:04.677Z,33.50
2022-10-02T08:24:04.662Z,26.80
2022-10-02T08:25:04.755Z,28.40
2022-10-02T08:26:04.684Z,31.60
2022-10-02T08:27:04.861Z,29.10
2022-10-02T08:28:04.702Z,29.90
2022-10-02T08:29:04.647Z,24.50
2022-10-02T08:30:04.795Z,32.50
2022-10-02T08:31:04.657Z,25.20
2022-10-02T08:32:04.602Z,30.00
2022-10-02T08:33:04.599Z,29.40
2022-10-02T08:34:04.559Z,33.00
2022-10-02T08:35:04.583Z,26.80
2022-10-02T08:36:04.514Z,30.10
2022-10-02T08:37:04.563Z,29.30
2022-10-02T08:38:04.502Z,26.70
2022-10-02T08:39:04.485Z,27.00
2022-10-02T08:40:04.676Z,26.20
2022-10-02T08:41:04.551Z,27.50
2022-10-02T08:42:04.484Z,21.80
2022-10-02T08:43:04.446Z,26.20
2022-10-02T08:44:04.488Z,27.40
2022-10-02T08:45:04.462Z,29.20
2022-10-02T08:46:04.519Z,25.90
2022-10-02T08:47:04.528Z,27.60
2022-10-02T08:48:04.457Z,28.90
2022-10-02T08:49:04.371Z,29.20
2022-10-02T08:50:04.434Z,27.70
2022-10-02T08:51:04.346Z,26.80
2022-10-02T08:52:04.415Z,25.70
2022-10-02T08:53:04.336Z,23.40
2022-10-02T08:54:04.391Z,21.60
2022-10-02T08:55:04.372Z,24.20
2022-10-02T08:56:04.311Z,23.00
2022-10-02T08:57:04.329Z,28.00
2022-10-02T08:58:04.308Z,26.40
2022-10-02T08:59:04.375Z,22.10
2022-10-02T09:00:04.401Z,26.40
2022-10-02T09:01:04.276Z,25.00
2022-10-02T09:02:04.369Z,28.50
2022-10-02T09:03:04.260Z,23.40
2022-10-02T09:04:04.199Z,21.60
2022-10-02T09:05:04.278Z,20.10
2022-10-02T09:06:04.253Z,23.30
2022-10-02T09:07:04.232Z,21.90
2022-10-02T09:08:04.201Z,24.60
2022-10-02T09:09:04.211Z,22.30
2022-10-02T09:10:04.153Z,19.30
2022-10-02T09:11:04.145Z,19.20
2022-10-02T09:12:04.159Z,22.40
2022-10-02T09:13:04.083Z,20.10
2022-10-02T09:14:04.086Z,20.30
2022-10-02T09:15:04.138Z,16.10
2022-10-02T09:16:04.164Z,19.50
2022-10-02T09:17:04.352Z,18.50
2022-10-02T09:18:04.107Z,20.10
2022-10-02T09:19:04.093Z,18.50
2022-10-02T09:20:04.043Z,19.60
2022-10-02T09:21:08.109Z,20.70
2022-10-02T09:22:04.004Z,20.40
2022-10-02T09:23:04.079Z,19.30
2022-10-02T09:24:04.174Z,19.10
2022-10-02T09:25:04.132Z,19.10
2022-10-02T09:26:03.951Z,17.20
2022-10-02T09:27:03.940Z,16.20
2022-10-02T09:28:03.979Z,18.70
2022-10-02T09:29:03.927Z,19.30
2022-10-02T09:30:03.966Z,16.70
2022-10-02T09:31:03.898Z,14.80
2022-10-02T09:32:04.116Z,18.50
2022-10-02T09:33:03.902Z,19.20
2022-10-02T09:34:04.014Z,17.10
2022-10-02T09:35:03.863Z,19.10
2022-10-02T09:36:03.846Z,19.00
2022-10-02T09:37:03.893Z,17.90
2022-10-02T09:38:03.870Z,19.30
2022-10-02T09:39:03.795Z,18.10
2022-10-02T09:40:03.829Z,15.20
2022-10-02T09:41:03.872Z,14.80
2022-10-02T09:42:03.792Z,20.10
2022-10-02T09:43:03.856Z,17.50
2022-10-02T09:44:03.889Z,18.20
2022-10-02T09:45:03.779Z,14.40
2022-10-02T09:46:03.767Z,17.70
2022-10-02T09:47:03.727Z,15.70
2022-10-02T09:48:03.748Z,19.30
2022-10-02T09:49:03.772Z,16.00
2022-10-02T09:50:03.686Z,20.00
2022-10-02T09:51:03.902Z,15.90
2022-10-02T09:52:03.724Z,16.20
2022-10-02T09:53:03.634Z,15.90
2022-10-02T09:54:03.637Z,19.30
2022-10-02T09:55:03.676Z,17.00
2022-10-02T09:56:03.651Z,15.40
2022-10-02T09:57:03.639Z,17.70
2022-10-02T09:58:03.590Z,19.30
2022-10-02T09:59:03.641Z,18.00
2022-10-02T10:00:03.643Z,19.10
2022-10-02T10:01:03.602Z,19.50
2022-10-02T10:02:03.558Z,18.10
2022-10-02T10:03:03.598Z,17.40
2022-10-02T10:04:03.544Z,18.40
2022-10-02T10:05:06.380Z,15.80
2022-10-02T10:06:03.538Z,17.50
2022-10-02T10:07:03.488Z,19.30
2022-10-02T10:08:03.521Z,19.20
2022-10-02T10:09:03.495Z,16.50
2022-10-02T10:10:03.492Z,18.10
2022-10-02T10:11:03.450Z,19.00
2022-10-02T10:12:03.438Z,16.90
2022-10-02T10:13:03.419Z,15.90
2022-10-02T10:14:03.405Z,16.30
2022-10-02T10:15:07.373Z,15.60
2022-10-02T10:16:03.474Z,20.10
2022-10-02T10:17:03.361Z,14.40
2022-10-02T10:18:03.455Z,17.50
2022-10-02T10:19:03.416Z,13.90
2022-10-02T10:20:03.437Z,15.40
2022-10-02T10:21:03.520Z,14.80
2022-10-02T10:22:03.321Z,15.00
2022-10-02T10:23:03.344Z,17.60
2022-10-02T10:24:03.316Z,15.20
2022-10-02T10:25:03.325Z,13.10
2022-10-02T10:26:03.362Z,17.60
2022-10-02T10:27:06.285Z,13.70
2022-10-02T10:28:05.994Z,16.60
2022-10-02T10:29:03.216Z,12.60
2022-10-02T10:30:03.242Z,14.50
2022-10-02T10:31:03.276Z,14.80
2022-10-02T10:32:03.230Z,15.70
2022-10-02T10:33:03.207Z,14.80
2022-10-02T10:34:03.219Z,16.00
2022-10-02T10:35:03.188Z,11.90
2022-10-02T10:36:03.141Z,14.20
2022-10-02T10:37:03.153Z,12.50
2022-10-02T10:38:03.130Z,14.80
2022-10-02T10:39:03.127Z,13.20
2022-10-02T10:40:03.159Z,14.40
2022-10-02T10:41:03.090Z,13.40
2022-10-02T10:42:03.115Z,12.30
2022-10-02T10:43:07.971Z,14.80
2022-10-02T10:44:03.078Z,13.90
2022-10-02T10:45:03.069Z,12.00
2022-10-02T10:46:03.138Z,14.60
2022-10-02T10:47:03.048Z,12.50
2022-10-02T10:48:03.007Z,12.90
2022-10-02T10:49:02.992Z,11.00
2022-10-02T10:50:03.086Z,13.50
2022-10-02T10:51:02.990Z,12.30
2022-10-02T10:52:03.007Z,11.40
2022-10-02T10:53:02.971Z,13.00
2022-10-02T10:54:02.948Z,14.90
2022-10-02T10:55:02.986Z,13.60
2022-10-02T10:56:02.933Z,12.30
2022-10-02T10:57:02.905Z,12.80
2022-10-02T10:58:02.902Z,16.00
2022-10-02T10:59:02.897Z,12.00
2022-10-02T11:00:03.007Z,11.80
2022-10-02T11:01:02.937Z,11.20
2022-10-02T11:02:02.929Z,11.80
2022-10-02T11:03:02.900Z,10.60
2022-10-02T11:04:02.875Z,10.20
2022-10-02T11:05:02.851Z,11.70
2022-10-02T11:06:02.814Z,11.60
2022-10-02T11:07:02.915Z,12.30
2022-10-02T11:08:02.870Z,10.00
2022-10-02T11:09:02.788Z,14.70
2022-10-02T11:10:02.888Z,11.40
2022-10-02T11:11:02.751Z,12.90
2022-10-02T11:12:05.220Z,12.90
2022-10-02T11:13:02.763Z,10.90
2022-10-02T11:14:02.715Z,13.60
2022-10-02T11:15:02.783Z,10.30
2022-10-02T11:16:02.815Z,11.90
2022-10-02T11:17:02.725Z,15.40
2022-10-02T11:18:02.663Z,13.90
2022-10-02T11:19:02.727Z,10.80
2022-10-02T11:20:02.711Z,10.10
2022-10-02T11:21:02.858Z,17.40
2022-10-02T11:22:02.747Z,11.40
2022-10-02T11:23:02.709Z,13.40
2022-10-02T11:24:02.615Z,12.80
2022-10-02T11:25:02.644Z,10.60
2022-10-02T11:26:02.591Z,11.10
2022-10-02T11:27:02.622Z,10.00
2022-10-02T11:28:02.583Z,11.10
2022-10-02T11:29:02.546Z,14.70
2022-10-02T11:30:02.643Z,8.90
2022-10-02T11:31:02.607Z,11.90
2022-10-02T11:32:02.697Z,8.90
2022-10-02T11:33:02.553Z,10.60
2022-10-02T11:34:02.507Z,12.50
2022-10-02T11:35:02.510Z,11.20
2022-10-02T11:36:02.553Z,8.70
2022-10-02T11:37:02.540Z,9.20
2022-10-02T11:38:04.139Z,10.80
2022-10-02T11:39:02.487Z,7.60
2022-10-02T11:40:02.482Z,12.20
2022-10-02T11:41:02.462Z,11.50
2022-10-02T11:42:02.428Z,10.30
2022-10-02T11:43:02.457Z,11.00
2022-10-02T11:44:02.411Z,8.80
2022-10-02T11:45:02.396Z,9.10
2022-10-02T11:46:02.456Z,15.30
2022-10-02T11:47:02.395Z,9.30
2022-10-02T11:48:02.348Z,8.40
2022-10-02T11:49:02.337Z,12.20
2022-10-02T11:50:02.405Z,11.20
2022-10-02T11:51:02.328Z,10.80
2022-10-02T11:52:02.299Z,12.30
2022-10-02T11:53:02.296Z,12.90
2022-10-02T11:54:02.273Z,8.70
2022-10-02T11:55:02.292Z,9.80
2022-10-02T11:56:02.319Z,12.20
2022-10-02T11:57:02.268Z,13.90
2022-10-02T11:58:02.266Z,11.90
2022-10-02T11:59:02.230Z,9.70
2022-10-02T12:00:02.270Z,8.40
2022-10-02T12:01:02.201Z,9.20
2022-10-02T12:02:02.308Z,8.90
2022-10-02T12:03:02.365Z,9.70
2022-10-02T12:04:02.207Z,7.80
2022-10-02T12:05:02.204Z,10.70
2022-10-02T12:06:02.161Z,9.40
2022-10-02T12:07:02.232Z,10.90
2022-10-02T12:08:02.178Z,10.90
2022-10-02T12:09:02.150Z,11.30
2022-10-02T12:10:02.135Z,11.50
2022-10-02T12:11:02.101Z,11.70
2022-10-02T12:12:02.170Z,6.90
2022-10-02T12:13:02.077Z,9.80
2022-10-02T12:14:02.040Z,12.20
2022-10-02T12:15:02.073Z,13.20
2022-10-02T12:16:02.026Z,9.80
2022-10-02T12:17:02.071Z,7.70
2022-10-02T12:18:02.061Z,9.80
2022-10-02T12:19:01.998Z,11.00
2022-10-02T12:20:02.026Z,11.10
2022-10-02T12:21:02.022Z,8.80
2022-10-02T12:22:02.011Z,10.90
2022-10-02T12:23:01.989Z,10.90
2022-10-02T12:24:01.940Z,11.30
2022-10-02T12:25:01.948Z,9.60
2022-10-02T12:26:01.931Z,10.10
2022-10-02T12:27:01.884Z,9.00
2022-10-02T12:28:01.925Z,7.00
2022-10-02T12:29:01.890Z,9.80
2022-10-02T12:30:02.040Z,10.00
2022-10-02T12:31:01.891Z,10.60
2022-10-02T12:32:01.901Z,9.20
2022-10-02T12:33:01.824Z,8.70
2022-10-02T12:34:01.854Z,11.10
2022-10-02T12:35:01.813Z,11.50
2022-10-02T12:36:01.804Z,8.80
2022-10-02T12:37:01.779Z,10.20
2022-10-02T12:38:01.788Z,10.30
2022-10-02T12:39:01.782Z,9.40
2022-10-02T12:40:01.784Z,10.20
2022-10-02T12:41:01.741Z,13.40
2022-10-02T12:42:01.739Z,8.30
2022-10-02T12:43:01.722Z,11.00
2022-10-02T12:44:01.758Z,9.80
2022-10-02T12:45:01.739Z,12.50
2022-10-02T12:46:01.732Z,10.80
2022-10-02T12:47:01.694Z,10.60
2022-10-02T12:48:01.653Z,11.60
2022-10-02T12:49:01.644Z,9.50
2022-10-02T12:50:01.697Z,9.50
2022-10-02T12:51:05.396Z,10.10
2022-10-02T12:52:01.606Z,11.20
2022-10-02T12:53:01.590Z,9.40
2022-10-02T12:54:01.607Z,8.90